Terminal Aerodrome Forecast
Issued by NWS

Current Version | Previous Version | Text Only | Print | Product List | Glossary On
Versions: 1 2 3 4 5 6 7 8 9 10 11 12 13 14
000
FTUS42 TJSJ 012300
TAFJMZ
TAF
TJMZ 012337Z 0200/0224 06004KT P6SM SKC
     FM021550 27008KT P6SM VCTS BKN030CB PROB30 0217/0220 6SM -TSRA
     FM022100 05005KT P6SM SCT030=

USA.gov is the U.S. government's official web portal to all federal, state and local government web resources and services.